Terminal Aerodrome Forecast
Issued by NWS

Current Version | Previous Version | Graphics & Text | Print | Product List | Glossary On
Versions: 1 2 3 4 5 6 7 8 9 10 11 12 13 14 15 16 17 18 19 20 21 22 23 24 25 26
000
FTUS41 KRLX 300304 AAA
TAFCKB
TAF AMD
KCKB 300304Z 3003/3024 22004KT P6SM SCT250
     FM300700 17004KT P6SM OVC110
     FM301000 17006KT 6SM SHRA VCTS OVC040CB
     FM301500 19011G18KT 6SM SHRA OVC035
     FM301800 22013G23KT 3SM SHRA OVC030
     FM302100 28008G16KT 4SM SHRA OVC020=

USA.gov is the U.S. government's official web portal to all federal, state and local government web resources and services.